Time;durP1;ratioP1;P1;durP2;ratioP2;P2;SDS_P1;SDS_P2;PMS_P1;PMS_P2;Temp;Humidity;BMP_temperature;BMP_pressure;BME280_temperature;BME280_humidity;BME280_pressure;Samples;Min_cycle;Max_cycle;Signal;HPM_P1;HPM_P2
2022/03/03 00:02:00;;;;;;;74.20;31.00;;;;;;;-5.18;70.83;100291.71;215635;1274;140308;-70
2022/03/03 00:07:06;;;;;;;86.50;37.60;;;;;;;-5.24;70.95;100295.11;215799;1276;139940;-71
2022/03/03 00:12:10;;;;;;;85.40;34.50;;;;;;;-5.22;70.84;100298.98;215608;1276;142192;-73
2022/03/03 00:17:14;;;;;;;88.90;38.00;;;;;;;-5.19;70.74;100294.73;215605;1274;141514;-70
2022/03/03 00:22:17;;;;;;;94.10;43.00;;;;;;;-5.21;70.76;100290.46;214534;1274;140065;-73
2022/03/03 00:27:21;;;;;;;60.70;28.60;;;;;;;-5.24;71.12;100286.52;213924;1275;143534;-72
2022/03/03 00:32:26;;;;;;;49.50;28.20;;;;;;;-5.36;70.86;100274.42;213017;1276;139741;-74
2022/03/03 00:37:33;;;;;;;45.10;22.20;;;;;;;-5.51;70.90;100263.48;214456;1274;141212;-71
2022/03/03 00:42:37;;;;;;;68.10;30.50;;;;;;;-5.62;71.32;100247.93;213683;1277;141652;-70
2022/03/03 00:47:41;;;;;;;80.80;36.80;;;;;;;-5.59;71.47;100239.02;213963;1277;141085;-71
2022/03/03 00:52:45;;;;;;;79.80;42.80;;;;;;;-5.51;71.83;100246.51;213448;1275;139908;-71
2022/03/03 00:57:50;;;;;;;79.10;40.50;;;;;;;-5.45;71.88;100248.27;213765;1276;139832;-71
2022/03/03 01:02:53;;;;;;;74.00;38.70;;;;;;;-5.46;71.96;100239.17;213542;1275;140093;-72
2022/03/03 01:07:57;;;;;;;67.50;30.10;;;;;;;-5.54;71.84;100227.77;213660;1276;139784;-73
2022/03/03 01:13:01;;;;;;;64.10;27.10;;;;;;;-5.65;71.77;100224.41;214221;1276;140591;-72
2022/03/03 01:18:06;;;;;;;65.10;29.20;;;;;;;-5.77;71.73;100220.52;213930;1276;140764;-72
2022/03/03 01:23:10;;;;;;;49.30;25.50;;;;;;;-5.85;72.00;100222.00;213114;1274;140352;-70
2022/03/03 01:28:15;;;;;;;49.60;24.70;;;;;;;-5.90;72.11;100224.11;214069;1274;140230;-70
2022/03/03 01:33:18;;;;;;;60.80;31.00;;;;;;;-5.94;72.22;100220.80;213647;1274;140224;-71
2022/03/03 01:38:23;;;;;;;63.80;29.30;;;;;;;-5.91;72.13;100211.92;213725;1274;142302;-70
2022/03/03 01:43:27;;;;;;;55.30;32.60;;;;;;;-5.90;72.24;100203.02;214721;1274;140057;-72
2022/03/03 01:48:32;;;;;;;60.80;32.40;;;;;;;-5.88;72.47;100206.15;214301;1274;140705;-73
2022/03/03 01:53:36;;;;;;;59.10;28.90;;;;;;;-5.85;72.67;100202.63;214695;1276;141962;-74
2022/03/03 01:58:41;;;;;;;70.10;32.30;;;;;;;-5.82;72.88;100196.70;214730;1274;140115;-69
2022/03/03 02:03:45;;;;;;;63.40;31.30;;;;;;;-5.74;73.06;100195.87;214333;1274;141276;-70
2022/03/03 02:08:50;;;;;;;57.70;24.80;;;;;;;-5.69;73.18;100187.33;215833;1274;140761;-72
2022/03/03 02:13:54;;;;;;;62.00;30.50;;;;;;;-5.67;73.19;100190.48;216082;1274;140381;-67
2022/03/03 02:18:59;;;;;;;61.60;30.40;;;;;;;-5.67;73.10;100183.41;215323;1273;142412;-74
2022/03/03 02:24:05;;;;;;;58.90;30.90;;;;;;;-5.69;72.97;100175.42;215764;1274;141201;-74
2022/03/03 02:29:11;;;;;;;67.90;31.20;;;;;;;-5.64;72.69;100179.36;214811;1274;796416;-74
2022/03/03 02:34:16;;;;;;;77.10;37.80;;;;;;;-5.68;72.62;100172.53;213905;1274;140842;-73
2022/03/03 02:39:20;;;;;;;60.90;34.00;;;;;;;-5.71;72.59;100167.08;213452;1274;141505;-63
2022/03/03 02:44:24;;;;;;;61.60;29.10;;;;;;;-5.81;72.71;100161.07;215695;1272;140166;-72
2022/03/03 02:49:29;;;;;;;53.90;28.20;;;;;;;-5.89;72.72;100151.41;214205;1274;140531;-73
2022/03/03 02:54:33;;;;;;;45.40;23.50;;;;;;;-5.96;72.86;100147.29;213437;1274;139888;-71
2022/03/03 02:59:37;;;;;;;49.30;23.60;;;;;;;-6.04;72.92;100144.98;214901;1274;142048;-74
2022/03/03 03:04:42;;;;;;;58.70;25.40;;;;;;;-6.08;73.13;100145.75;213861;1274;140199;-73
2022/03/03 03:09:47;;;;;;;70.20;33.30;;;;;;;-6.09;73.23;100138.95;213896;1274;140220;-73
2022/03/03 03:14:51;;;;;;;63.60;29.60;;;;;;;-6.06;73.19;100134.23;213254;1273;140690;-73
2022/03/03 03:19:55;;;;;;;70.30;34.30;;;;;;;-6.02;73.26;100134.02;214191;1274;140476;-73
2022/03/03 03:25:00;;;;;;;78.90;30.40;;;;;;;-6.05;73.24;100127.73;213272;1276;139313;-71
2022/03/03 03:30:08;;;;;;;50.10;25.60;;;;;;;-6.08;73.53;100125.89;213189;1274;141010;-71
2022/03/03 03:35:13;;;;;;;67.20;35.30;;;;;;;-6.09;73.83;100119.89;213691;1274;139892;-68
2022/03/03 03:40:18;;;;;;;71.70;36.30;;;;;;;-6.06;74.15;100121.21;213822;1276;141644;-72
2022/03/03 03:45:23;;;;;;;54.00;25.90;;;;;;;-6.04;74.16;100121.42;213066;1274;140838;-71
2022/03/03 03:50:29;;;;;;;73.20;37.40;;;;;;;-6.05;74.37;100118.88;214648;1274;139971;-72
2022/03/03 03:55:33;;;;;;;73.70;36.80;;;;;;;-6.02;74.43;100111.61;213606;1276;140970;-72
2022/03/03 04:00:38;;;;;;;81.70;38.50;;;;;;;-5.97;74.47;100102.36;214059;1274;140951;-75
2022/03/03 04:05:44;;;;;;;77.70;38.80;;;;;;;-5.86;74.27;100100.39;215433;1277;141688;-75
2022/03/03 04:10:48;;;;;;;84.40;41.80;;;;;;;-5.74;74.50;100093.42;215228;1274;140239;-75
2022/03/03 04:15:52;;;;;;;87.60;41.30;;;;;;;-5.64;74.81;100092.91;215933;1275;141094;-74
2022/03/03 04:20:56;;;;;;;72.90;38.50;;;;;;;-5.53;75.04;100087.73;215963;1274;140374;-68
2022/03/03 04:26:01;;;;;;;82.20;36.10;;;;;;;-5.44;75.06;100083.17;216242;1274;141642;-73
2022/03/03 04:31:06;;;;;;;56.50;27.90;;;;;;;-5.39;75.16;100083.14;215989;1274;140110;-71
2022/03/03 04:36:11;;;;;;;95.60;44.40;;;;;;;-5.36;74.73;100079.04;214687;1274;140276;-70
2022/03/03 04:41:16;;;;;;;84.60;42.40;;;;;;;-5.27;74.70;100066.73;215714;1273;142726;-69
2022/03/03 04:46:24;;;;;;;74.80;38.90;;;;;;;-5.18;74.76;100052.44;214826;1274;140962;-69
2022/03/03 04:51:36;;;;;;;89.30;40.60;;;;;;;-5.16;74.76;100038.06;214194;1274;142089;-66
2022/03/03 04:56:41;;;;;;;82.40;42.00;;;;;;;-5.15;74.81;100033.64;213261;1275;139718;-70
2022/03/03 05:01:48;;;;;;;68.40;35.50;;;;;;;-5.12;75.21;100026.98;213901;1274;140679;-70
2022/03/03 05:06:52;;;;;;;80.70;37.40;;;;;;;-5.13;75.34;100022.88;214534;1274;140189;-73
2022/03/03 05:11:57;;;;;;;98.80;47.00;;;;;;;-5.10;75.48;100015.92;214944;1274;139908;-67
2022/03/03 05:17:01;;;;;;;88.40;43.30;;;;;;;-4.96;75.58;100015.81;213676;1274;141975;-69
2022/03/03 05:22:05;;;;;;;90.10;47.10;;;;;;;-4.79;75.57;100015.23;213314;1274;140773;-74
2022/03/03 05:27:10;;;;;;;102.80;46.80;;;;;;;-4.71;75.65;100014.50;213890;1276;139925;-71
2022/03/03 05:32:15;;;;;;;94.50;50.10;;;;;;;-4.68;75.57;100014.49;213204;1274;141020;-69
2022/03/03 05:37:24;;;;;;;91.00;42.10;;;;;;;-4.65;75.53;100027.38;213787;1274;141021;-71
2022/03/03 05:42:29;;;;;;;88.40;42.10;;;;;;;-4.59;75.26;100024.64;214209;1274;140514;-70
2022/03/03 05:47:34;;;;;;;100.20;50.90;;;;;;;-4.58;75.09;100023.65;213207;1276;140697;-71
2022/03/03 05:52:38;;;;;;;96.60;43.90;;;;;;;-4.57;75.22;100030.44;214127;1274;140358;-69
2022/03/03 05:57:52;;;;;;;99.30;48.50;;;;;;;-4.56;75.02;100029.89;214148;1274;141119;-68
2022/03/03 06:02:57;;;;;;;93.80;47.30;;;;;;;-4.54;75.19;100034.70;214638;1274;141206;-67
2022/03/03 06:08:05;;;;;;;87.70;47.20;;;;;;;-4.52;75.09;100030.05;213243;1275;140637;-68
2022/03/03 06:13:27;;;;;;;112.00;48.20;;;;;;;-4.52;75.17;100028.98;214373;1274;141299;-69
2022/03/03 06:18:33;;;;;;;86.00;43.20;;;;;;;-4.46;75.09;100030.23;213261;1277;141447;-68
2022/03/03 06:23:37;;;;;;;87.70;46.30;;;;;;;-4.32;75.05;100027.85;214909;1274;141919;-69
2022/03/03 06:28:44;;;;;;;92.50;45.00;;;;;;;-4.18;75.10;100026.23;213436;1274;140138;-69
2022/03/03 06:33:48;;;;;;;114.90;51.80;;;;;;;-4.09;75.18;100031.86;215740;1274;140168;-70
2022/03/03 06:38:51;;;;;;;97.70;51.10;;;;;;;-3.97;75.24;100033.95;215862;1274;141455;-67
2022/03/03 06:43:55;;;;;;;91.30;42.10;;;;;;;-3.84;75.37;100037.45;216051;1274;233038;-72
2022/03/03 06:48:59;;;;;;;114.00;57.70;;;;;;;-3.66;75.48;100034.67;215822;1274;139952;-73
2022/03/03 06:54:05;;;;;;;111.30;56.40;;;;;;;-3.39;75.62;100029.83;215026;1274;140345;-69
2022/03/03 06:59:09;;;;;;;139.30;66.70;;;;;;;-3.12;75.74;100026.98;214846;1274;140600;-73
2022/03/03 07:04:13;;;;;;;161.90;106.70;;;;;;;-2.88;75.74;100032.10;214508;1274;139893;-71
2022/03/03 07:09:19;;;;;;;128.30;60.40;;;;;;;-2.68;75.57;100031.96;213927;1274;140846;-73
2022/03/03 07:14:25;;;;;;;107.60;47.80;;;;;;;-2.41;75.45;100034.79;213959;1277;140977;-72
2022/03/03 07:19:39;;;;;;;126.50;58.50;;;;;;;-1.59;75.12;100031.24;214091;1276;140877;-74
2022/03/03 07:24:46;;;;;;;105.10;50.40;;;;;;;-0.23;74.79;100020.97;214166;1274;141036;-67
2022/03/03 07:29:59;;;;;;;96.10;48.60;;;;;;;1.04;73.68;100022.83;214045;1274;226774;-70
2022/03/03 07:35:05;;;;;;;83.20;45.60;;;;;;;2.28;72.58;100024.95;214166;1274;140516;-70
2022/03/03 07:40:11;;;;;;;;;;;;;;;3.11;70.48;100018.50;213971;1274;139829;-76
2022/03/03 07:45:16;;;;;;;81.60;44.20;;;;;;;3.61;69.83;100015.98;214982;1274;125979;-72
2022/03/03 07:50:20;;;;;;;70.10;41.00;;;;;;;3.96;68.78;100016.70;213559;1274;140300;-72
2022/03/03 07:55:32;;;;;;;95.70;46.20;;;;;;;3.92;67.60;100015.64;213179;1274;141468;-72
2022/03/03 08:00:43;;;;;;;75.10;42.00;;;;;;;3.83;67.22;100014.80;214044;1274;139664;-72
2022/03/03 08:05:51;;;;;;;75.10;42.20;;;;;;;3.65;66.62;100008.21;215081;1274;140368;-71
2022/03/03 08:10:59;;;;;;;80.50;42.70;;;;;;;3.45;66.24;100005.98;214523;1274;140496;-70
2022/03/03 08:16:03;;;;;;;;;;;;;;;3.16;65.97;100008.90;215182;1274;140686;-73
2022/03/03 08:21:07;;;;;;;81.90;43.40;;;;;;;3.01;65.87;100011.05;214647;1274;126240;-72
2022/03/03 08:26:13;;;;;;;65.20;39.70;;;;;;;3.07;65.99;100007.02;213880;1274;150654;-76
2022/03/03 08:31:28;;;;;;;60.40;38.00;;;;;;;3.13;66.09;100005.58;216062;1274;140081;-75
2022/03/03 08:36:35;;;;;;;66.80;36.70;;;;;;;3.23;65.83;99999.88;215587;1274;141202;-77
2022/03/03 08:41:41;;;;;;;60.40;36.60;;;;;;;3.29;65.27;99994.75;215459;1274;139479;-72
2022/03/03 08:46:46;;;;;;;57.20;35.60;;;;;;;3.34;64.85;99992.55;215879;1274;140092;-72
2022/03/03 08:51:52;;;;;;;62.30;33.90;;;;;;;3.42;64.78;99994.46;214717;1274;140181;-74
2022/03/03 08:56:57;;;;;;;62.80;33.50;;;;;;;3.53;64.61;99995.89;213928;1274;140095;-73
2022/03/03 09:02:04;;;;;;;49.90;30.00;;;;;;;3.65;64.52;99993.34;213905;1274;140349;-75
2022/03/03 09:07:10;;;;;;;50.40;32.10;;;;;;;3.72;64.05;99994.06;214307;1274;139113;-74
2022/03/03 09:12:15;;;;;;;51.30;27.90;;;;;;;3.80;63.80;99984.58;214294;1274;139819;-73
2022/03/03 09:17:18;;;;;;;44.00;24.80;;;;;;;3.90;63.45;99989.25;213688;1274;139673;-70
2022/03/03 09:22:23;;;;;;;52.50;31.30;;;;;;;3.98;62.97;99984.14;214071;1274;139212;-76
2022/03/03 09:27:27;;;;;;;42.30;25.70;;;;;;;4.07;62.88;99983.19;213787;1274;141350;-73
2022/03/03 09:32:31;;;;;;;41.00;24.50;;;;;;;4.14;62.41;99981.64;213959;1274;143751;-71
2022/03/03 09:37:36;;;;;;;31.30;18.90;;;;;;;4.30;62.41;99983.74;214208;1274;140022;-75
2022/03/03 09:42:40;;;;;;;39.40;23.50;;;;;;;4.47;62.22;99977.38;213324;1274;140483;-72
2022/03/03 09:47:45;;;;;;;33.70;21.80;;;;;;;4.52;61.48;99972.06;213664;1274;140681;-72
2022/03/03 09:52:50;;;;;;;36.50;20.70;;;;;;;4.45;60.70;99976.10;213060;1276;141405;-73
2022/03/03 09:57:55;;;;;;;37.80;20.40;;;;;;;4.54;60.63;99973.19;213045;1276;141560;-73
2022/03/03 10:03:12;;;;;;;31.10;19.90;;;;;;;4.63;60.00;99973.81;213657;1276;141355;-73
2022/03/03 10:08:22;;;;;;;34.80;22.80;;;;;;;4.73;59.70;99972.60;214536;1274;141154;-73
2022/03/03 10:13:28;;;;;;;35.60;21.00;;;;;;;4.77;59.30;99982.63;215383;1276;140109;-71
2022/03/03 10:18:33;;;;;;;36.40;19.50;;;;;;;4.91;59.18;99980.21;214417;1274;140115;-74
2022/03/03 10:23:37;;;;;;;33.10;19.40;;;;;;;4.99;58.86;99977.43;214089;1276;140067;-70
2022/03/03 10:28:48;;;;;;;36.00;22.10;;;;;;;5.12;58.97;99973.63;215554;1276;151458;-76
2022/03/03 10:33:52;;;;;;;47.30;28.90;;;;;;;5.23;58.86;99971.65;214165;1276;139813;-74
2022/03/03 10:38:57;;;;;;;44.50;24.50;;;;;;;5.32;58.75;99979.06;215709;1276;139891;-70
2022/03/03 10:44:07;;;;;;;39.90;22.30;;;;;;;5.42;58.29;99976.13;215796;1276;140461;-72
2022/03/03 10:49:20;;;;;;;39.40;25.30;;;;;;;5.58;57.92;99970.37;214430;1276;139874;-71
2022/03/03 10:54:24;;;;;;;42.80;24.00;;;;;;;5.49;58.00;99972.98;215666;1276;140447;-73
2022/03/03 10:59:44;;;;;;;35.70;22.10;;;;;;;5.55;58.10;99971.13;213174;1276;140894;-73
2022/03/03 11:04:48;;;;;;;36.40;22.90;;;;;;;5.52;57.58;99967.63;214399;1276;139515;-73
2022/03/03 11:09:53;;;;;;;41.50;25.70;;;;;;;5.45;57.54;99967.84;214339;1276;139747;-74
2022/03/03 11:15:03;;;;;;;33.90;20.90;;;;;;;5.43;57.41;99973.89;212661;1276;140409;-75
2022/03/03 11:20:12;;;;;;;43.30;23.80;;;;;;;5.43;57.30;99971.33;215211;1274;141337;-75
2022/03/03 11:25:24;;;;;;;39.00;24.90;;;;;;;5.50;57.54;99965.87;213909;1274;141363;-70
2022/03/03 11:30:30;;;;;;;32.80;21.60;;;;;;;5.30;57.28;99968.55;214328;1274;140220;-69
2022/03/03 11:35:56;;;;;;;32.10;22.50;;;;;;;5.05;56.91;99967.97;214006;1274;140506;-71
2022/03/03 11:41:05;;;;;;;40.70;26.60;;;;;;;5.05;57.31;99971.70;213564;1274;141977;-67
2022/03/03 11:46:09;;;;;;;40.50;29.00;;;;;;;4.97;57.71;99969.20;213192;1274;141575;-68
2022/03/03 11:51:35;;;;;;;48.20;31.10;;;;;;;4.83;57.96;99969.67;213714;1274;140022;-69
2022/03/03 11:57:08;;;;;;;42.20;26.30;;;;;;;4.68;58.61;99966.17;214889;1274;139839;-72
2022/03/03 12:02:19;;;;;;;45.30;29.90;;;;;;;4.63;58.87;99970.36;214474;1274;140273;-72
2022/03/03 12:07:29;;;;;;;43.00;27.20;;;;;;;4.62;58.97;99969.02;215099;1274;141231;-72
2022/03/03 12:12:34;;;;;;;44.70;27.40;;;;;;;4.68;59.06;99966.43;215429;1274;139694;-72
2022/03/03 12:17:46;;;;;;;45.20;26.90;;;;;;;4.75;59.12;99974.05;214099;1274;139650;-71
2022/03/03 12:23:05;;;;;;;49.30;29.50;;;;;;;4.77;59.41;99974.75;214000;1274;140942;-66
2022/03/03 12:28:17;;;;;;;58.00;31.50;;;;;;;4.57;59.07;99981.48;214595;1274;140630;-71
2022/03/03 12:33:32;;;;;;;57.90;29.10;;;;;;;4.24;59.37;99982.15;215053;1274;140830;-71
2022/03/03 12:38:37;;;;;;;42.70;26.30;;;;;;;3.93;59.70;99987.20;214862;1274;140282;-71
2022/03/03 12:43:42;;;;;;;57.10;30.80;;;;;;;3.65;59.99;99994.46;215525;1274;139862;-74
2022/03/03 12:48:47;;;;;;;50.40;29.70;;;;;;;3.37;60.14;99988.70;215945;1274;139652;-74
2022/03/03 12:53:54;;;;;;;50.80;27.50;;;;;;;3.15;60.59;99991.63;215562;1274;141524;-74
2022/03/03 12:59:07;;;;;;;53.00;31.10;;;;;;;2.82;60.72;99993.40;215703;1274;141250;-74
2022/03/03 13:04:14;;;;;;;41.80;25.20;;;;;;;2.65;61.44;99992.83;215968;1274;140085;-71
2022/03/03 13:09:21;;;;;;;50.10;28.10;;;;;;;2.69;61.65;99995.83;215929;1274;141655;-74
2022/03/03 13:14:26;;;;;;;47.90;27.10;;;;;;;2.65;61.79;99997.89;213499;1274;140271;-71
2022/03/03 13:19:31;;;;;;;43.70;24.90;;;;;;;2.61;61.82;99999.20;214994;1274;152392;-71
2022/03/03 13:24:40;;;;;;;46.70;30.60;;;;;;;2.53;62.06;99997.55;214791;1274;141284;-70
2022/03/03 13:29:44;;;;;;;51.50;26.90;;;;;;;2.45;62.60;100005.27;214145;1274;139651;-70
2022/03/03 13:34:50;;;;;;;46.00;26.10;;;;;;;2.37;62.85;100004.59;214295;1274;140475;-70
2022/03/03 13:39:55;;;;;;;42.80;22.80;;;;;;;2.28;62.61;100002.47;214612;1274;140625;-70
2022/03/03 13:45:00;;;;;;;36.90;22.20;;;;;;;2.20;62.80;100006.60;214800;1274;140818;-71
2022/03/03 13:50:06;;;;;;;37.70;23.30;;;;;;;2.08;63.23;100003.79;214165;1274;142179;-71
2022/03/03 13:55:12;;;;;;;41.40;26.00;;;;;;;2.00;63.35;99996.03;213159;1274;140762;-69
2022/03/03 14:00:29;;;;;;;41.30;22.00;;;;;;;1.91;63.60;99994.56;213444;1274;139856;-70
2022/03/03 14:05:47;;;;;;;36.30;20.30;;;;;;;1.82;63.79;99992.31;214533;1274;140018;-73
2022/03/03 14:11:08;;;;;;;55.00;25.80;;;;;;;1.68;64.07;99987.59;212901;1273;140330;-67
2022/03/03 14:16:15;;;;;;;47.30;24.70;;;;;;;1.58;64.42;99990.75;214762;1274;140102;-71
2022/03/03 14:21:20;;;;;;;36.10;22.60;;;;;;;1.62;64.43;99988.00;213827;1274;140989;-72
2022/03/03 14:26:26;;;;;;;35.10;21.50;;;;;;;1.60;64.51;99988.15;213481;1274;140127;-70
2022/03/03 14:31:31;;;;;;;41.00;24.80;;;;;;;1.50;64.41;99988.02;213431;1275;486554;-69
2022/03/03 14:36:38;;;;;;;43.30;24.40;;;;;;;1.35;64.45;99982.63;213849;1274;140429;-69
2022/03/03 14:41:44;;;;;;;34.90;21.10;;;;;;;1.16;64.85;99981.70;212867;1274;141876;-73
2022/03/03 14:46:49;;;;;;;32.60;18.70;;;;;;;1.00;65.13;99976.98;215165;1274;140698;-70
2022/03/03 14:51:56;;;;;;;39.00;19.50;;;;;;;0.87;65.51;99975.17;214915;1274;141361;-72
2022/03/03 14:57:01;;;;;;;37.00;22.50;;;;;;;0.87;65.53;99976.39;214094;1274;143282;-73
2022/03/03 15:02:09;;;;;;;40.30;19.90;;;;;;;0.80;65.74;99971.73;215674;1274;141615;-75
2022/03/03 15:07:15;;;;;;;32.80;18.70;;;;;;;0.75;65.59;99979.08;215846;1274;140901;-71
2022/03/03 15:12:20;;;;;;;39.60;22.80;;;;;;;0.63;66.00;99979.73;215960;1274;141100;-69
2022/03/03 15:17:24;;;;;;;40.70;21.50;;;;;;;0.55;65.91;99977.27;216009;1273;141031;-74
2022/03/03 15:22:31;;;;;;;32.10;20.30;;;;;;;0.52;65.88;99980.77;215920;1274;141629;-75
2022/03/03 15:27:37;;;;;;;37.80;22.20;;;;;;;0.51;66.31;99985.23;213568;1274;141035;-74
2022/03/03 15:32:43;;;;;;;35.50;19.30;;;;;;;0.48;66.24;99989.06;214917;1274;140880;-74
2022/03/03 15:37:51;;;;;;;32.90;20.60;;;;;;;0.44;66.48;99991.21;214867;1274;151246;-74
2022/03/03 15:42:56;;;;;;;40.70;21.60;;;;;;;0.35;66.33;99989.08;214032;1274;140358;-74
2022/03/03 15:48:01;;;;;;;44.60;21.60;;;;;;;0.24;66.50;99995.92;214138;1274;139761;-70
2022/03/03 15:53:08;;;;;;;33.80;19.00;;;;;;;0.16;66.53;100000.13;214494;1274;140420;-72
2022/03/03 15:58:12;;;;;;;37.60;16.80;;;;;;;0.07;66.86;100002.30;213614;1274;140496;-70
2022/03/03 16:03:16;;;;;;;31.10;18.00;;;;;;;0.01;67.23;100011.66;212908;1274;141539;-67
2022/03/03 16:08:21;;;;;;;34.70;19.00;;;;;;;-0.08;67.28;100010.70;213184;1274;141209;-72
2022/03/03 16:13:25;;;;;;;42.10;20.70;;;;;;;-0.14;67.53;100018.63;214472;1274;209118;-73
2022/03/03 16:18:29;;;;;;;38.90;20.50;;;;;;;-0.10;67.86;100019.30;213826;1274;143041;-71
2022/03/03 16:23:34;;;;;;;40.00;19.20;;;;;;;-0.11;67.96;100019.54;213274;1274;142103;-70
2022/03/03 16:28:59;;;;;;;37.40;19.10;;;;;;;-0.17;67.98;100021.80;212897;1274;140855;-72
2022/03/03 16:34:03;;;;;;;33.00;18.80;;;;;;;-0.24;68.21;100022.65;213830;1274;141970;-75
2022/03/03 16:39:09;;;;;;;28.40;15.90;;;;;;;-0.26;68.52;100018.88;213463;1274;141779;-69
2022/03/03 16:44:13;;;;;;;29.70;15.70;;;;;;;-0.22;68.72;100018.27;215552;1273;140451;-71
2022/03/03 16:49:19;;;;;;;32.90;18.10;;;;;;;-0.14;68.45;100026.20;214377;1274;142218;-70
2022/03/03 16:54:23;;;;;;;33.10;16.10;;;;;;;-0.12;68.38;100027.69;213963;1274;141567;-68
2022/03/03 16:59:27;;;;;;;34.90;17.50;;;;;;;-0.11;68.68;100030.58;215240;1274;142568;-69
2022/03/03 17:04:30;;;;;;;32.40;17.50;;;;;;;-0.09;68.61;100036.02;214508;1274;210522;-70
2022/03/03 17:09:35;;;;;;;35.00;15.70;;;;;;;-0.12;68.60;100035.38;215756;1274;140007;-70
2022/03/03 17:14:41;;;;;;;40.00;20.10;;;;;;;-0.11;68.74;100034.23;215935;1272;142019;-71
2022/03/03 17:19:45;;;;;;;33.20;17.60;;;;;;;-0.04;68.56;100031.05;215656;1274;142917;-71
2022/03/03 17:24:48;;;;;;;36.90;17.80;;;;;;;0.03;68.79;100027.00;213841;1274;141782;-66
2022/03/03 17:29:52;;;;;;;40.30;19.10;;;;;;;0.10;68.81;100024.48;215885;1274;140183;-74
2022/03/03 17:34:56;;;;;;;34.70;19.10;;;;;;;0.14;69.01;100026.02;213382;1275;141057;-71
2022/03/03 17:40:01;;;;;;;37.60;20.90;;;;;;;0.13;68.99;100024.77;214505;1274;140585;-75
2022/03/03 17:45:05;;;;;;;40.60;19.40;;;;;;;0.13;69.06;100032.27;213701;1274;141052;-71
2022/03/03 17:50:10;;;;;;;32.10;18.10;;;;;;;0.12;69.15;100039.50;212952;1274;140619;-69
2022/03/03 17:55:15;;;;;;;37.80;19.00;;;;;;;0.08;69.08;100038.15;213818;1274;141730;-71
2022/03/03 18:00:20;;;;;;;40.70;20.90;;;;;;;0.07;69.27;100042.10;213914;1274;141602;-71
2022/03/03 18:05:24;;;;;;;35.60;20.60;;;;;;;0.13;69.16;100042.55;214592;1274;140969;-71
2022/03/03 18:10:29;;;;;;;35.10;19.70;;;;;;;0.18;69.34;100046.93;213793;1274;141284;-70
2022/03/03 18:15:33;;;;;;;35.80;20.00;;;;;;;0.23;69.35;100050.42;213867;1274;141904;-70
2022/03/03 18:20:39;;;;;;;36.10;19.70;;;;;;;0.21;69.54;100057.46;214359;1274;141845;-69
2022/03/03 18:25:44;;;;;;;33.40;18.60;;;;;;;0.17;69.60;100066.55;213697;1274;140234;-69
2022/03/03 18:30:48;;;;;;;39.00;21.50;;;;;;;0.16;69.86;100069.89;214127;1274;161280;-73
2022/03/03 18:35:53;;;;;;;36.50;18.40;;;;;;;0.14;69.69;100073.40;213759;1274;141853;-69
2022/03/03 18:41:00;;;;;;;29.30;18.80;;;;;;;0.12;70.14;100072.77;214045;1275;142534;-68
2022/03/03 18:46:05;;;;;;;43.20;18.90;;;;;;;0.11;70.13;100075.95;214993;1274;140453;-68
2022/03/03 18:51:10;;;;;;;42.70;19.80;;;;;;;0.14;69.88;100082.08;214687;1274;142860;-69
2022/03/03 18:56:14;;;;;;;35.70;17.90;;;;;;;0.18;70.33;100082.98;215932;1274;142032;-74
2022/03/03 19:01:20;;;;;;;31.00;20.20;;;;;;;0.22;70.29;100083.02;214916;1274;140758;-71
2022/03/03 19:06:24;;;;;;;33.40;18.80;;;;;;;0.20;70.27;100082.89;215762;1275;140387;-68
2022/03/03 19:11:36;;;;;;;33.50;22.50;;;;;;;0.21;70.48;100083.65;215589;1274;141479;-69
2022/03/03 19:16:41;;;;;;;40.50;19.40;;;;;;;0.23;70.85;100081.34;215997;1274;142120;-68
2022/03/03 19:21:45;;;;;;;28.40;16.50;;;;;;;0.22;70.82;100083.75;216067;1272;140283;-68
2022/03/03 19:26:51;;;;;;;42.60;22.90;;;;;;;0.20;70.93;100088.13;215354;1274;141989;-66
2022/03/03 19:37:19;;;;;;;38.60;19.70;;;;;;;0.33;70.91;100091.07;214303;1274;140596;-70
2022/03/03 19:42:24;;;;;;;38.30;19.40;;;;;;;0.33;71.04;100087.79;215807;1274;140289;-76
2022/03/03 19:47:28;;;;;;;38.10;19.50;;;;;;;0.31;71.21;100091.54;214212;1274;140710;-67
2022/03/03 19:52:32;;;;;;;40.10;21.60;;;;;;;0.30;71.30;100090.23;213667;1274;140280;-67
2022/03/03 19:57:36;;;;;;;34.00;20.30;;;;;;;0.26;71.66;100086.45;214995;1274;139682;-73
2022/03/03 20:02:42;;;;;;;41.10;20.70;;;;;;;0.22;71.44;100093.02;214947;1274;140026;-75
2022/03/03 20:07:46;;;;;;;52.20;23.20;;;;;;;0.24;71.43;100096.43;213818;1274;140671;-74
2022/03/03 20:12:53;;;;;;;49.00;27.40;;;;;;;0.30;71.55;100090.38;213053;1274;143178;-69
2022/03/03 20:17:57;;;;;;;44.10;24.00;;;;;;;0.33;71.80;100079.77;213854;1274;141025;-72
2022/03/03 20:23:09;;;;;;;48.10;22.10;;;;;;;0.29;71.90;100090.81;214225;1274;140382;-74
2022/03/03 20:28:14;;;;;;;56.50;22.50;;;;;;;0.20;72.08;100093.34;212899;1276;140802;-69
2022/03/03 20:33:22;;;;;;;40.80;18.10;;;;;;;0.15;72.36;100095.88;214411;1274;140381;-69
2022/03/03 20:38:26;;;;;;;43.60;21.40;;;;;;;0.13;72.32;100097.09;214476;1274;141936;-65
2022/03/03 20:43:33;;;;;;;38.10;21.60;;;;;;;0.18;72.51;100095.16;213194;1274;143561;-73
2022/03/03 20:48:43;;;;;;;38.90;20.80;;;;;;;0.24;72.38;100088.78;214632;1274;141105;-72
2022/03/03 20:53:49;;;;;;;43.80;23.20;;;;;;;0.31;72.46;100084.84;214913;1274;140366;-71
2022/03/03 20:58:55;;;;;;;41.50;21.50;;;;;;;0.33;72.73;100079.54;214207;1275;140851;-72
2022/03/03 21:04:00;;;;;;;43.80;21.40;;;;;;;0.31;72.69;100074.79;215610;1274;140688;-71
2022/03/03 21:09:05;;;;;;;39.90;19.00;;;;;;;0.25;72.16;100076.74;215608;1275;140490;-74
2022/03/03 21:14:09;;;;;;;45.10;22.70;;;;;;;0.28;72.29;100075.02;216117;1274;141256;-71
2022/03/03 21:19:13;;;;;;;43.90;25.60;;;;;;;0.29;72.38;100078.27;215639;1274;141850;-79
2022/03/03 21:24:22;;;;;;;41.70;22.40;;;;;;;0.28;72.38;100075.55;215439;1274;140399;-70
2022/03/03 21:29:27;;;;;;;38.10;22.00;;;;;;;0.26;72.43;100072.33;215857;1276;140275;-77
2022/03/03 21:34:31;;;;;;;48.80;24.70;;;;;;;0.24;72.56;100067.83;215679;1276;140833;-77
2022/03/03 21:39:36;;;;;;;45.20;22.20;;;;;;;0.19;72.55;100067.05;214889;1274;140039;-76
2022/03/03 21:44:41;;;;;;;36.60;19.90;;;;;;;0.19;72.55;100065.68;214219;1276;150678;-69
2022/03/03 21:49:46;;;;;;;43.80;21.30;;;;;;;0.18;72.23;100063.71;214440;1274;140179;-68
2022/03/03 21:54:53;;;;;;;45.50;25.00;;;;;;;0.15;72.67;100063.83;213732;1274;140103;-68
2022/03/03 21:59:58;;;;;;;52.10;24.20;;;;;;;0.11;72.75;100063.42;214572;1274;140775;-68
2022/03/03 22:05:04;;;;;;;45.80;22.30;;;;;;;0.07;72.79;100066.59;214777;1277;139529;-69
2022/03/03 22:10:10;;;;;;;43.90;22.10;;;;;;;0.06;73.04;100073.86;214328;1274;141774;-73
2022/03/03 22:15:16;;;;;;;52.40;23.40;;;;;;;0.08;72.68;100070.74;213575;1276;140892;-71
2022/03/03 22:20:21;;;;;;;45.20;21.70;;;;;;;0.09;72.88;100068.89;214382;1274;140570;-77
2022/03/03 22:25:25;;;;;;;42.60;21.40;;;;;;;0.08;73.13;100064.40;214157;1276;139706;-71
2022/03/03 22:30:33;;;;;;;47.90;22.30;;;;;;;0.05;73.12;100064.70;213821;1276;139681;-72
2022/03/03 22:35:38;;;;;;;50.30;24.00;;;;;;;0.02;73.07;100060.27;214073;1274;139482;-71
2022/03/03 22:40:42;;;;;;;53.30;22.40;;;;;;;-0.00;73.23;100057.55;213627;1277;139646;-68
2022/03/03 22:45:46;;;;;;;44.70;21.90;;;;;;;0.00;73.31;100054.38;213794;1274;141645;-73
2022/03/03 22:56:14;;;;;;;59.70;30.70;;;;;;;0.07;73.61;100050.73;214245;1274;139836;-74
2022/03/03 23:01:19;;;;;;;38.90;22.60;;;;;;;0.06;73.57;100054.72;214376;1274;140439;-74
2022/03/03 23:06:24;;;;;;;52.40;25.00;;;;;;;0.03;73.59;100057.42;215077;1274;140470;-76